CBAPRS
Automatic Packet Reporting System for everyone...
Symbol
PositionLatitude: 40.3908333333°
Longitude: -3.67083333333°
Speed0km/h
Course
AltitudeN/A
CommentCH 40 - 27.405 FM Mhz | https://cb27.ure.es/
StatusRadio enlace LRCB | www.LaRadioCB.es
PathURE-CB>APWW10 via ,TCPIP*,qAC,EIFEL-CB
Last heardWed, 16 Jan 2019 03:17:57 +0000

Time is in UTC

  • Thu, 31 Jan 2019 23:48:00 +0000: URE-CB>APWW10,,TCPIP*,qAC,EIFEL-CB:>312348zRadio enlace LRCB | www.LaRadioCB.es
  • Wed, 16 Jan 2019 22:17:54 +0000: URE-CB>APWW10,,TCPIP*,qAC,EIFEL-CB:@231754h4023.45N/00340.25WyCH 40 - 27.405 FM Mhz | https://cb27.ure.es/
  • Wed, 16 Jan 2019 04:09:00 +0000: URE-CB>APWW10,,TCPIP*,qAC,EIFEL-CB:>160409zRadio enlace LRCB | www.LaRadioCB.es
  • Wed, 16 Jan 2019 03:17:57 +0000: URE-CB>APWW10,,TCPIP*,qAC,EIFEL-CB:@041757h4023.45N/00340.25WyCH 40 - 27.405 FM Mhz | https://cb27.ure.es/
  • Wed, 16 Jan 2019 03:08:00 +0000: URE-CB>APWW10,,TCPIP*,qAC,EIFEL-CB:>160308zRadio enlace LRCB | www.LaRadioCB.es
  • Wed, 16 Jan 2019 02:47:57 +0000: URE-CB>APWW10,,TCPIP*,qAC,EIFEL-CB:@034757h4023.45N/00340.25WyCH 40 - 27.405 FM Mhz | https://cb27.ure.es/
  • Wed, 16 Jan 2019 02:17:57 +0000: URE-CB>APWW10,,TCPIP*,qAC,EIFEL-CB:@031757h4023.45N/00340.25WyCH 40 - 27.405 FM Mhz | https://cb27.ure.es/
  • Wed, 16 Jan 2019 02:08:00 +0000: URE-CB>APWW10,,TCPIP*,qAC,EIFEL-CB:>160208zRadio enlace LRCB | www.LaRadioCB.es
  • Wed, 16 Jan 2019 01:47:56 +0000: URE-CB>APWW10,,TCPIP*,qAC,EIFEL-CB:@024756h4023.45N/00340.25WyCH 40 - 27.405 FM Mhz | https://cb27.ure.es/
  • Wed, 16 Jan 2019 01:17:55 +0000: URE-CB>APWW10,,TCPIP*,qAC,EIFEL-CB:@021755h4023.45N/00340.25WyCH 40 - 27.405 FM Mhz | https://cb27.ure.es/
  • Wed, 16 Jan 2019 00:47:55 +0000: URE-CB>APWW10,,TCPIP*,qAC,EIFEL-CB:@014755h4023.45N/00340.25WyCH 40 - 27.405 FM Mhz | https://cb27.ure.es/
  • Wed, 16 Jan 2019 00:17:55 +0000: URE-CB>APWW10,,TCPIP*,qAC,EIFEL-CB:@011755h4023.45N/00340.25WyCH 40 - 27.405 FM Mhz | https://cb27.ure.es/
  • Wed, 16 Jan 2019 00:08:00 +0000: URE-CB>APWW10,,TCPIP*,qAC,EIFEL-CB:>160008zRadio enlace LRCB | www.LaRadioCB.es
  • Tue, 15 Jan 2019 23:17:54 +0000: URE-CB>APWW10,,TCPIP*,qAC,EIFEL-CB:@001754h4023.45N/00340.25WyCH 40 - 27.405 FM Mhz | https://cb27.ure.es/
  • Tue, 15 Jan 2019 23:07:00 +0000: URE-CB>APWW10,,TCPIP*,qAC,EIFEL-CB:>152307zRadio enlace LRCB | www.LaRadioCB.es
  • Tue, 15 Jan 2019 22:50:51 +0000: URE-CB>APWW10,,TCPIP*,qAC,EIFEL-CB:@235051h4023.45N/00340.25WyCH 40 - 27.405 FM Mhz | https://cb27.ure.es/
  • Tue, 15 Jan 2019 22:20:51 +0000: URE-CB>APWW10,,TCPIP*,qAC,EIFEL-CB:@232051h4023.45N/00340.25WyCH 40 - 27.405 FM Mhz | https://cb27.ure.es/
  • Tue, 15 Jan 2019 22:18:39 +0000: URE-CB>APWW10,,TCPIP*,qAC,EIFEL-CB:@231839h4023.45N/00340.25WyCH 40 - 27.405 FM Mhz | https://cb27.ure.es/
  • Tue, 15 Jan 2019 22:07:00 +0000: URE-CB>APWW10,,TCPIP*,qAC,EIFEL-CB:>152207zRadio enlace LRCB | www.LaRadioCB.es
  • Tue, 15 Jan 2019 21:47:54 +0000: URE-CB>APWW10,,TCPIP*,qAC,EIFEL-CB:@224754h4023.45N/00340.25WyCH 40 - 27.405 FM Mhz | https://cb27.ure.es/
  • Tue, 15 Jan 2019 21:17:54 +0000: URE-CB>APWW10,,TCPIP*,qAC,EIFEL-CB:@221754h4023.45N/00340.25WyCH 40 - 27.405 FM Mhz | https://cb27.ure.es/
  • Tue, 15 Jan 2019 21:07:00 +0000: URE-CB>APWW10,,TCPIP*,qAC,EIFEL-CB:>152107zRadio enlace LRCB | www.LaRadioCB.es
  • Tue, 15 Jan 2019 20:47:54 +0000: URE-CB>APWW10,,TCPIP*,qAC,EIFEL-CB:@214754h4023.45N/00340.25WyCH 40 - 27.405 FM Mhz | https://cb27.ure.es/
  • Tue, 15 Jan 2019 20:17:54 +0000: URE-CB>APWW10,,TCPIP*,qAC,EIFEL-CB:@211754h4023.45N/00340.25WyCH 40 - 27.405 FM Mhz | https://cb27.ure.es/
  • Tue, 15 Jan 2019 20:06:00 +0000: URE-CB>APWW10,,TCPIP*,qAC,EIFEL-CB:>152006zRadio enlace LRCB | www.LaRadioCB.es
  • Tue, 15 Jan 2019 19:47:53 +0000: URE-CB>APWW10,,TCPIP*,qAC,EIFEL-CB:@204753h4023.45N/00340.25WyCH 40 - 27.405 FM Mhz | https://cb27.ure.es/
  • Tue, 15 Jan 2019 19:17:53 +0000: URE-CB>APWW10,,TCPIP*,qAC,EIFEL-CB:@201753h4023.45N/00340.25WyCH 40 - 27.405 FM Mhz | https://cb27.ure.es/
  • Tue, 15 Jan 2019 18:47:53 +0000: URE-CB>APWW10,,TCPIP*,qAC,EIFEL-CB:@194753h4023.45N/00340.25WyCH 40 - 27.405 FM Mhz | https://cb27.ure.es/
  • Tue, 15 Jan 2019 18:17:53 +0000: URE-CB>APWW10,,TCPIP*,qAC,EIFEL-CB:@191753h4023.45N/00340.25WyCH 40 - 27.405 FM Mhz | https://cb27.ure.es/
  • Tue, 15 Jan 2019 18:06:00 +0000: URE-CB>APWW10,,TCPIP*,qAC,EIFEL-CB:>151806zRadio enlace LRCB | www.LaRadioCB.es
  • Tue, 15 Jan 2019 17:47:53 +0000: URE-CB>APWW10,,TCPIP*,qAC,EIFEL-CB:@184753h4023.45N/00340.25WyCH 40 - 27.405 FM Mhz | https://cb27.ure.es/
  • Tue, 15 Jan 2019 17:17:52 +0000: URE-CB>APWW10,,TCPIP*,qAC,EIFEL-CB:@181752h4023.45N/00340.25WyCH 40 - 27.405 FM Mhz | https://cb27.ure.es/
  • Tue, 15 Jan 2019 17:06:00 +0000: URE-CB>APWW10,,TCPIP*,qAC,EIFEL-CB:>151706zRadio enlace LRCB | www.LaRadioCB.es
  • Tue, 15 Jan 2019 16:47:51 +0000: URE-CB>APWW10,,TCPIP*,qAC,EIFEL-CB:@174751h4023.45N/00340.25WyCH 40 - 27.405 FM Mhz | https://cb27.ure.es/
  • Tue, 15 Jan 2019 16:17:51 +0000: URE-CB>APWW10,,TCPIP*,qAC,EIFEL-CB:@171751h4023.45N/00340.25WyCH 40 - 27.405 FM Mhz | https://cb27.ure.es/
  • Tue, 15 Jan 2019 16:06:00 +0000: URE-CB>APWW10,,TCPIP*,qAC,EIFEL-CB:>151606zRadio enlace LRCB | www.LaRadioCB.es
  • Tue, 15 Jan 2019 15:47:50 +0000: URE-CB>APWW10,,TCPIP*,qAC,EIFEL-CB:@164750h4023.45N/00340.25WyCH 40 - 27.405 FM Mhz | https://cb27.ure.es/
  • Tue, 15 Jan 2019 15:17:50 +0000: URE-CB>APWW10,,TCPIP*,qAC,EIFEL-CB:@161750h4023.45N/00340.25WyCH 40 - 27.405 FM Mhz | https://cb27.ure.es/
  • Tue, 15 Jan 2019 15:06:00 +0000: URE-CB>APWW10,,TCPIP*,qAC,EIFEL-CB:>151506zRadio enlace LRCB | www.LaRadioCB.es
  • Tue, 15 Jan 2019 14:47:50 +0000: URE-CB>APWW10,,TCPIP*,qAC,EIFEL-CB:@154750h4023.45N/00340.25WyCH 40 - 27.405 FM Mhz | https://cb27.ure.es/
  • Tue, 15 Jan 2019 14:17:49 +0000: URE-CB>APWW10,,TCPIP*,qAC,EIFEL-CB:@151749h4023.45N/00340.25WyCH 40 - 27.405 FM Mhz | https://cb27.ure.es/
  • Tue, 15 Jan 2019 14:05:00 +0000: URE-CB>APWW10,,TCPIP*,qAC,EIFEL-CB:>151405zRadio enlace LRCB | www.LaRadioCB.es
  • Tue, 15 Jan 2019 13:47:48 +0000: URE-CB>APWW10,,TCPIP*,qAC,EIFEL-CB:@144748h4023.45N/00340.25WyCH 40 - 27.405 FM Mhz | https://cb27.ure.es/
  • Tue, 15 Jan 2019 13:17:48 +0000: URE-CB>APWW10,,TCPIP*,qAC,EIFEL-CB:@141748h4023.45N/00340.25WyCH 40 - 27.405 FM Mhz | https://cb27.ure.es/
  • Tue, 15 Jan 2019 13:05:00 +0000: URE-CB>APWW10,,TCPIP*,qAC,EIFEL-CB:>151305zRadio enlace LRCB | www.LaRadioCB.es
  • Tue, 15 Jan 2019 12:47:47 +0000: URE-CB>APWW10,,TCPIP*,qAC,EIFEL-CB:@134747h4023.45N/00340.25WyCH 40 - 27.405 FM Mhz | https://cb27.ure.es/
  • Tue, 15 Jan 2019 12:17:47 +0000: URE-CB>APWW10,,TCPIP*,qAC,EIFEL-CB:@131747h4023.45N/00340.25WyCH 40 - 27.405 FM Mhz | https://cb27.ure.es/
  • Tue, 15 Jan 2019 12:04:00 +0000: URE-CB>APWW10,,TCPIP*,qAC,EIFEL-CB:>151204zRadio enlace LRCB | www.LaRadioCB.es
  • Tue, 15 Jan 2019 11:47:47 +0000: URE-CB>APWW10,,TCPIP*,qAC,EIFEL-CB:@124747h4023.45N/00340.25WyCH 40 - 27.405 FM Mhz | https://cb27.ure.es/
  • Tue, 15 Jan 2019 11:04:00 +0000: URE-CB>APWW10,,TCPIP*,qAC,EIFEL-CB:>151104zRadio enlace LRCB | www.LaRadioCB.es
  • Tue, 15 Jan 2019 10:47:45 +0000: URE-CB>APWW10,,TCPIP*,qAC,EIFEL-CB:@114745h4023.45N/00340.25WyCH 40 - 27.405 FM Mhz | https://cb27.ure.es/
  • Tue, 15 Jan 2019 10:17:44 +0000: URE-CB>APWW10,,TCPIP*,qAC,EIFEL-CB:@111744h4023.45N/00340.25WyCH 40 - 27.405 FM Mhz | https://cb27.ure.es/
  • Tue, 15 Jan 2019 09:47:44 +0000: URE-CB>APWW10,,TCPIP*,qAC,EIFEL-CB:@104744h4023.45N/00340.25WyCH 40 - 27.405 FM Mhz | https://cb27.ure.es/
  • Tue, 15 Jan 2019 09:17:44 +0000: URE-CB>APWW10,,TCPIP*,qAC,EIFEL-CB:@101744h4023.45N/00340.25WyCH 40 - 27.405 FM Mhz | https://cb27.ure.es/
  • Tue, 15 Jan 2019 09:03:00 +0000: URE-CB>APWW10,,TCPIP*,qAC,EIFEL-CB:>150903zRadio enlace LRCB | www.LaRadioCB.es
  • Tue, 15 Jan 2019 08:47:43 +0000: URE-CB>APWW10,,TCPIP*,qAC,EIFEL-CB:@094743h4023.45N/00340.25WyCH 40 - 27.405 FM Mhz | https://cb27.ure.es/
  • Tue, 15 Jan 2019 08:17:42 +0000: URE-CB>APWW10,,TCPIP*,qAC,EIFEL-CB:@091742h4023.45N/00340.25WyCH 40 - 27.405 FM Mhz | https://cb27.ure.es/
  • Tue, 15 Jan 2019 08:03:00 +0000: URE-CB>APWW10,,TCPIP*,qAC,EIFEL-CB:>150803zRadio enlace LRCB | www.LaRadioCB.es
  • Tue, 15 Jan 2019 07:47:42 +0000: URE-CB>APWW10,,TCPIP*,qAC,EIFEL-CB:@084742h4023.45N/00340.25WyCH 40 - 27.405 FM Mhz | https://cb27.ure.es/
  • Tue, 15 Jan 2019 07:17:42 +0000: URE-CB>APWW10,,TCPIP*,qAC,EIFEL-CB:@081742h4023.45N/00340.25WyCH 40 - 27.405 FM Mhz | https://cb27.ure.es/
  • Tue, 15 Jan 2019 07:03:00 +0000: URE-CB>APWW10,,TCPIP*,qAC,EIFEL-CB:>150703zRadio enlace LRCB | www.LaRadioCB.es
  • Tue, 15 Jan 2019 06:47:41 +0000: URE-CB>APWW10,,TCPIP*,qAC,EIFEL-CB:@074741h4023.45N/00340.25WyCH 40 - 27.405 FM Mhz | https://cb27.ure.es/
  • Tue, 15 Jan 2019 06:17:41 +0000: URE-CB>APWW10,,TCPIP*,qAC,EIFEL-CB:@071741h4023.45N/00340.25WyCH 40 - 27.405 FM Mhz | https://cb27.ure.es/
  • Tue, 15 Jan 2019 06:03:00 +0000: URE-CB>APWW10,,TCPIP*,qAC,EIFEL-CB:>150603zRadio enlace LRCB | www.LaRadioCB.es
  • Tue, 15 Jan 2019 05:47:41 +0000: URE-CB>APWW10,,TCPIP*,qAC,EIFEL-CB:@064741h4023.45N/00340.25WyCH 40 - 27.405 FM Mhz | https://cb27.ure.es/
  • Tue, 15 Jan 2019 05:20:55 +0000: URE-CB>APWW10,,TCPIP*,qAC,EIFEL-CB:@062055h4023.45N/00340.25WyCH 40 - 27.405 FM Mhz | https://cb27.ure.es/
  • Tue, 15 Jan 2019 05:02:00 +0000: URE-CB>APWW10,,TCPIP*,qAC,EIFEL-CB:>150502zRadio enlace LRCB | www.LaRadioCB.es
  • Tue, 15 Jan 2019 04:50:54 +0000: URE-CB>APWW10,,TCPIP*,qAC,EIFEL-CB:@055054h4023.45N/00340.25WyCH 40 - 27.405 FM Mhz | https://cb27.ure.es/
  • Tue, 15 Jan 2019 04:20:54 +0000: URE-CB>APWW10,,TCPIP*,qAC,EIFEL-CB:@052054h4023.45N/00340.25WyCH 40 - 27.405 FM Mhz | https://cb27.ure.es/
  • Tue, 15 Jan 2019 04:02:00 +0000: URE-CB>APWW10,,TCPIP*,qAC,EIFEL-CB:>150402zRadio enlace LRCB | www.LaRadioCB.es
  • Tue, 15 Jan 2019 03:20:53 +0000: URE-CB>APWW10,,TCPIP*,qAC,EIFEL-CB:@042053h4023.45N/00340.25WyCH 40 - 27.405 FM Mhz | https://cb27.ure.es/
  • Tue, 15 Jan 2019 03:02:00 +0000: URE-CB>APWW10,,TCPIP*,qAC,EIFEL-CB:>150302zRadio enlace LRCB | www.LaRadioCB.es
  • Tue, 15 Jan 2019 02:50:53 +0000: URE-CB>APWW10,,TCPIP*,qAC,EIFEL-CB:@035053h4023.45N/00340.25WyCH 40 - 27.405 FM Mhz | https://cb27.ure.es/
  • Tue, 15 Jan 2019 02:20:53 +0000: URE-CB>APWW10,,TCPIP*,qAC,EIFEL-CB:@032053h4023.45N/00340.25WyCH 40 - 27.405 FM Mhz | https://cb27.ure.es/
  • Tue, 15 Jan 2019 02:01:00 +0000: URE-CB>APWW10,,TCPIP*,qAC,EIFEL-CB:>150201zRadio enlace LRCB | www.LaRadioCB.es
  • Tue, 15 Jan 2019 01:50:53 +0000: URE-CB>APWW10,,TCPIP*,qAC,EIFEL-CB:@025053h4023.45N/00340.25WyCH 40 - 27.405 FM Mhz | https://cb27.ure.es/
  • Tue, 15 Jan 2019 01:20:53 +0000: URE-CB>APWW10,,TCPIP*,qAC,EIFEL-CB:@022053h4023.45N/00340.25WyCH 40 - 27.405 FM Mhz | https://cb27.ure.es/
  • Tue, 15 Jan 2019 01:01:00 +0000: URE-CB>APWW10,,TCPIP*,qAC,EIFEL-CB:>150101zRadio enlace LRCB | www.LaRadioCB.es
  • Tue, 15 Jan 2019 00:50:52 +0000: URE-CB>APWW10,,TCPIP*,qAC,EIFEL-CB:@015052h4023.45N/00340.25WyCH 40 - 27.405 FM Mhz | https://cb27.ure.es/
  • Tue, 15 Jan 2019 00:20:52 +0000: URE-CB>APWW10,,TCPIP*,qAC,EIFEL-CB:@012052h4023.45N/00340.25WyCH 40 - 27.405 FM Mhz | https://cb27.ure.es/
  • Tue, 15 Jan 2019 00:01:00 +0000: URE-CB>APWW10,,TCPIP*,qAC,EIFEL-CB:>150001zRadio enlace LRCB | www.LaRadioCB.es
  • Mon, 14 Jan 2019 23:50:51 +0000: URE-CB>APWW10,,TCPIP*,qAC,EIFEL-CB:@005051h4023.45N/00340.25WyCH 40 - 27.405 FM Mhz | https://cb27.ure.es/
  • Mon, 14 Jan 2019 23:20:51 +0000: URE-CB>APWW10,,TCPIP*,qAC,EIFEL-CB:@002051h4023.45N/00340.25WyCH 40 - 27.405 FM Mhz | https://cb27.ure.es/
  • Mon, 14 Jan 2019 23:01:00 +0000: URE-CB>APWW10,,TCPIP*,qAC,EIFEL-CB:>142301zRadio enlace LRCB | www.LaRadioCB.es
  • Mon, 14 Jan 2019 22:47:02 +0000: URE-CB>APWW10,,TCPIP*,qAC,EIFEL-CB:@234702h4023.45N/00340.25WyCH 40 - 27.405 FM Mhz | https://cb27.ure.es/
  • Mon, 14 Jan 2019 22:17:02 +0000: URE-CB>APWW10,,TCPIP*,qAC,EIFEL-CB:@231702h4023.45N/00340.25WyCH 40 - 27.405 FM Mhz | https://cb27.ure.es/
  • Mon, 14 Jan 2019 22:01:00 +0000: URE-CB>APWW10,,TCPIP*,qAC,EIFEL-CB:>142201zRadio enlace LRCB | www.LaRadioCB.es
  • Mon, 14 Jan 2019 21:48:39 +0000: URE-CB>APWW10,,TCPIP*,qAC,EIFEL-CB:@224839h4023.45N/00340.25WyCH 40 - 27.405 FM Mhz | https://cb27.ure.es/
  • Mon, 14 Jan 2019 21:18:38 +0000: URE-CB>APWW10,,TCPIP*,qAC,EIFEL-CB:@221838h4023.45N/00340.25WyCH 40 - 27.405 FM Mhz | https://cb27.ure.es/
  • Mon, 14 Jan 2019 21:01:00 +0000: URE-CB>APWW10,,TCPIP*,qAC,EIFEL-CB:>142101zRadio enlace LRCB | www.LaRadioCB.es
  • Mon, 14 Jan 2019 20:48:38 +0000: URE-CB>APWW10,,TCPIP*,qAC,EIFEL-CB:@214838h4023.45N/00340.25WyCH 40 - 27.405 FM Mhz | https://cb27.ure.es/
  • Mon, 14 Jan 2019 20:18:37 +0000: URE-CB>APWW10,,TCPIP*,qAC,EIFEL-CB:@211837h4023.45N/00340.25WyCH 40 - 27.405 FM Mhz | https://cb27.ure.es/
  • Mon, 14 Jan 2019 20:00:00 +0000: URE-CB>APWW10,,TCPIP*,qAC,EIFEL-CB:>142000zRadio enlace LRCB | www.LaRadioCB.es
  • Mon, 14 Jan 2019 19:48:36 +0000: URE-CB>APWW10,,TCPIP*,qAC,EIFEL-CB:@204836h4023.45N/00340.25WyCH 40 - 27.405 FM Mhz | https://cb27.ure.es/
  • Mon, 14 Jan 2019 19:18:36 +0000: URE-CB>APWW10,,TCPIP*,qAC,EIFEL-CB:@201836h4023.45N/00340.25WyCH 40 - 27.405 FM Mhz | https://cb27.ure.es/
  • Mon, 14 Jan 2019 19:00:00 +0000: URE-CB>APWW10,,TCPIP*,qAC,EIFEL-CB:>141900zRadio enlace LRCB | www.LaRadioCB.es
  • Mon, 14 Jan 2019 18:48:35 +0000: URE-CB>APWW10,,TCPIP*,qAC,EIFEL-CB:@194835h4023.45N/00340.25WyCH 40 - 27.405 FM Mhz | https://cb27.ure.es/
  • Mon, 14 Jan 2019 18:18:35 +0000: URE-CB>APWW10,,TCPIP*,qAC,EIFEL-CB:@191835h4023.45N/00340.25WyCH 40 - 27.405 FM Mhz | https://cb27.ure.es/
  • Mon, 14 Jan 2019 18:00:00 +0000: URE-CB>APWW10,,TCPIP*,qAC,EIFEL-CB:>141800zRadio enlace LRCB | www.LaRadioCB.es
  • Mon, 14 Jan 2019 17:48:35 +0000: URE-CB>APWW10,,TCPIP*,qAC,EIFEL-CB:@184835h4023.45N/00340.25WyCH 40 - 27.405 FM Mhz | https://cb27.ure.es/